• Join FlightAware (Why Join?)
  • Login
  • US Flag 
03:36AM EST


 

Airport Tracker/Info


-or-


 

Live Flight TrackerFlight Track Log ✈ AIP1597 ✈ 29-Nov-2013 ✈ KBIL - KMSO

Flight Track Log - Related Links

Times and Time Zones

All times are in EST time to prevent confusion due to time zone crossing. See the AIP1597 flight status page for this flight to view local times or setup timezone preferences in your user account.

Time Position Orientation Groundspeed Altitude Reporting Facility
EST Latitude Longitude Course Direction KTS MPH feet Rate Location/Type
10:07AM 45.8478 -108.7006 288° West 171 197 8,800  Level Salt Lake Center
10:08AM 45.8619 -108.7656 287° West 175 201 10,300 1,620 Climbing Salt Lake Center
10:09AM 45.8789 -108.8403 288° West 181 208 12,100 1,620 Climbing Salt Lake Center
10:10AM 45.8958 -108.9128 289° West 191 220 13,600 1,380 Climbing Salt Lake Center
10:11AM 45.9252 -109.0637 288° West  Level Estimated
10:11AM 45.9108 -108.9858 286° West 193 222 14,900  Level Salt Lake Center
10:12AM 45.9446 -109.1507 288° West  Level Estimated
10:12AM 45.9275 -109.0603 288° West 197 227 16,000  Level Salt Lake Center
10:13AM 45.9469 -109.1497 287° West 215 247 16,000  Level Salt Lake Center
10:14AM 45.9644 -109.2364 286° West 227 261 16,000  Level Salt Lake Center
10:15AM 45.9817 -109.3231 286° West 228 262 16,000 60 Level Salt Lake Center
10:16AM 45.9994 -109.4117 286° West 231 266 16,200  Climbing Salt Lake Center
10:17AM 46.0197 -109.5053 287° West 231 266 16,100 -120 Descending Salt Lake Center
10:18AM 46.0392 -109.5922 288° West 230 265 16,000 -60 Descending Salt Lake Center
10:19AM 46.0572 -109.6778 287° West 227 261 16,000  Level Salt Lake Center
10:20AM 46.0778 -109.7708 288° West 228 262 16,000  Level Salt Lake Center
10:21AM 46.0928 -109.8511 285° West 231 266 16,000 -60 Level Salt Lake Center
10:22AM 46.1108 -109.9406 286° West 233 268 15,900  Descending Salt Lake Center
10:23AM 46.1297 -110.0292 287° West 232 267 16,000  Climbing Salt Lake Center
10:24AM 46.1500 -110.1181 288° West 234 269 15,900 -60 Descending Salt Lake Center
10:25AM 46.1667 -110.2078 285° West 233 268 15,900 60 Level Salt Lake Center
10:26AM 46.1861 -110.2978 287° West 233 268 16,100  Climbing Salt Lake Center
10:27AM 46.2108 -110.4006 289° West 230 265 16,000 -60 Descending Salt Lake Center
10:28AM 46.2308 -110.4867 289° West 228 262 16,000  Level Salt Lake Center
10:29AM 46.2458 -110.5756 284° West 227 261 16,000  Level Salt Lake Center
10:30AM 46.2622 -110.6636 285° West 229 264 16,000  Level Salt Lake Center
10:31AM 46.2825 -110.7489 289° West 226 260 16,100  Climbing Salt Lake Center
10:32AM 46.3028 -110.8333 289° West 223 257 16,000 -60 Descending Salt Lake Center
10:33AM 46.3200 -110.9231 286° West 229 264 16,000  Level Salt Lake Center
10:34AM 46.3381 -111.0261 284° West 239 275 16,000  Level Salt Lake Center
10:35AM 46.3567 -111.1183 286° West 235 270 16,100  Climbing Salt Lake Center
10:36AM 46.3758 -111.2106 287° West 235 270 16,100 -60 Level Salt Lake Center
10:37AM 46.3933 -111.3028 285° West 233 268 16,000 -60 Descending Salt Lake Center
10:38AM 46.4119 -111.3947 286° West 234 269 16,000  Level Salt Lake Center
10:39AM 46.4294 -111.4881 285° West 235 270 16,000  Level Salt Lake Center
10:40AM 46.4461 -111.5692 287° West 235 270 16,000  Level Salt Lake Center
10:41AM 46.4653 -111.6614 287° West 238 274 16,100  Climbing Salt Lake Center
10:42AM 46.4828 -111.7536 285° West 238 274 16,000 -120 Descending Salt Lake Center
10:43AM 46.5017 -111.8461 287° West 240 276 15,900  Descending Salt Lake Center
10:44AM 46.5192 -111.9392 285° West 239 275 16,000  Climbing Salt Lake Center
10:45AM 46.5383 -112.0328 287° West 242 278 16,000  Level Salt Lake Center
10:46AM 46.5558 -112.1275 285° West 246 283 16,000  Level Salt Lake Center
10:47AM 46.5786 -112.2419 286° West 247 284 16,000  Level Salt Lake Center
10:48AM 46.5958 -112.3411 284° West 251 289 16,000  Level Salt Lake Center
10:49AM 46.6144 -112.4392 285° West 253 291 16,000  Level Salt Lake Center
10:50AM 46.6311 -112.5378 284° West 252 290 16,000 -60 Level Salt Lake Center
10:51AM 46.6486 -112.6328 285° West 246 283 15,900 -60 Descending Salt Lake Center
10:52AM 46.6661 -112.7292 285° West 246 283 15,900 -60 Level Salt Lake Center
10:53AM 46.6828 -112.8242 284° West 243 280 15,800  Descending Salt Lake Center
10:54AM 46.6997 -112.9211 284° West 247 284 16,000 60 Climbing Salt Lake Center
10:55AM 46.7167 -113.0164 285° West 246 283 16,000  Level Salt Lake Center
10:56AM 46.7336 -113.1125 284° West 245 282 16,000 -360 Level Salt Lake Center
10:57AM 46.7511 -113.2108 285° West 253 291 15,300 -540 Descending Salt Lake Center
10:58AM 46.7711 -113.3244 284° West 253 291 15,000 -360 Descending Salt Lake Center
10:59AM 46.7956 -113.4211 290° West 239 275 14,600 -480 Descending Salt Lake Center
11:00AM 46.8350 -113.5050 305° West 249 287 14,100 -300 Descending Salt Lake Center
11:01AM 46.8728 -113.5842 305° West 241 277 14,000  Descending Salt Lake Center
11:02AM 46.9081 -113.6603 304° West 229 264 14,100  Climbing Salt Lake Center
11:03AM 46.9453 -113.7461 302° West 232 267 14,000  Descending Salt Lake Center
11:04AM 46.9781 -113.8244 302° West 229 264 14,100  Climbing Salt Lake Center
11:05AM 47.0103 -113.9033 301° West 228 262 14,100 -60 Level Salt Lake Center
11:06AM 47.0447 -113.9797 304° West 226 260 14,000 -60 Descending Salt Lake Center
11:07AM 47.0842 -114.0619 305° West 229 264 14,000 -60 Level Salt Lake Center
11:09AM 47.1164 -114.1411 301° West 228 262 13,900 -360 Descending Salt Lake Center
11:10AM 47.1517 -114.2258 302° West 242 278 13,300 -600 Descending Salt Lake Center
11:11AM 47.1900 -114.3200 301° West 249 287 12,700 -600 Descending Salt Lake Center
11:12AM 47.2206 -114.3892 303° West 253 291 12,100 -1,140 Descending Salt Lake Center
11:13AM 47.2361 -114.4958 282° West 249 287 10,400 -1,140 Descending Salt Lake Center
11:14AM 47.1683 -114.5014 183° South 270 311 9,800 -600 Descending Salt Lake Center
11:15AM 47.1119 -114.4239 137° Southeast 258 297 9,300 -1,020 Descending Salt Lake Center
11:16AM 47.0625 -114.3397 131° Southeast 271 312 7,800 -1,680 Descending Salt Lake Center
11:17AM 47.0158 -114.2606 131° Southeast 261 300 6,000 -1,500 Descending Salt Lake Center
11:18AM 46.9742 -114.1900 131° Southeast 236 272 4,800 -1,140 Descending Salt Lake Center
11:19AM 46.9381 -114.1297 131° Southeast 190 219 3,800 -180 Descending Salt Lake Center
11:20AM 46.9158 -114.0956 134° Southeast 134 154 4,500 1,500 Climbing Salt Lake Center
11:21AM 46.8733 -114.0817 167° South 160 184 6,900 2,160 Climbing Salt Lake Center
11:22AM 46.8583 -114.1194 240° Southwest 145 167 9,000 1,080 Climbing Salt Lake Center
11:23AM 46.8833 -114.1847 299° West 180 207 9,100  Climbing Salt Lake Center
11:24AM 46.9097 -114.2608 297° West 205 236 9,100  Level Salt Lake Center
11:25AM 46.9394 -114.3350 300° West 211 243 9,100 -60 Level Salt Lake Center
11:26AM 46.9719 -114.4031 305° West 206 237 9,000 -60 Descending Salt Lake Center
11:27AM 47.0128 -114.4703 312° West 204 235 9,000  Level Salt Lake Center
11:29AM 47.0925 -114.5853 316° Northwest 202 232 9,000 -60 Level Salt Lake Center
11:30AM 47.1344 -114.6225 329° Northwest 199 229 8,900  Descending Salt Lake Center
11:31AM 47.1608 -114.5336 66° East 237 273 9,000 60 Climbing Salt Lake Center
11:32AM 47.1269 -114.4519 121° Southeast 235 270 9,100 -360 Climbing Salt Lake Center
11:33AM 47.0833 -114.3789 131° Southeast 238 274 8,300 -1,200 Descending Salt Lake Center
11:34AM 47.0378 -114.2997 130° Southeast 251 289 6,700 -1,380 Descending Salt Lake Center
11:35AM 46.9933 -114.2242 131° Southeast 235 270 5,500 -1,140 Descending Salt Lake Center
11:36AM 46.9647 -114.1739 130° Southeast 167 192 4,400 -900 Descending Salt Lake Center
11:37AM 46.9394 -114.1328 132° Southeast 141 162 3,700 -600 Descending Salt Lake Center
11:38AM 46.9169 -114.0939 130° Southeast 135 155 3,200 -540 Descending Salt Lake Center